createdAt,value
2023-03-04T00:00:14.440Z,10.60
2023-03-04T00:02:16.073Z,8.05
2023-03-04T00:04:18.315Z,7.65
2023-03-04T00:06:19.975Z,7.78
2023-03-04T00:08:21.607Z,7.63
2023-03-04T00:10:23.267Z,8.25
2023-03-04T00:12:24.955Z,9.82
2023-03-04T00:14:28.796Z,11.07
2023-03-04T00:16:31.808Z,8.57
2023-03-04T00:18:33.530Z,8.25
2023-03-04T00:20:35.174Z,10.52
2023-03-04T00:22:36.769Z,8.15
2023-03-04T00:24:38.493Z,12.13
2023-03-04T00:26:40.152Z,8.68
2023-03-04T00:28:41.857Z,8.10
2023-03-04T00:30:43.532Z,9.60
2023-03-04T00:32:45.274Z,8.77
2023-03-04T00:34:47.000Z,9.30
2023-03-04T00:36:48.856Z,8.60
2023-03-04T00:38:50.497Z,11.45
2023-03-04T00:40:52.211Z,7.88
2023-03-04T00:42:54.025Z,9.13
2023-03-04T00:44:55.668Z,11.52
2023-03-04T00:46:57.274Z,9.57
2023-03-04T00:48:59.050Z,8.63
2023-03-04T00:51:00.746Z,8.10
2023-03-04T00:53:02.444Z,12.02
2023-03-04T00:55:05.219Z,7.28
2023-03-04T00:57:06.945Z,9.10
2023-03-04T00:59:08.606Z,10.07
2023-03-04T01:01:10.346Z,8.05
2023-03-04T01:03:12.054Z,8.60
2023-03-04T01:05:14.590Z,7.18
2023-03-04T01:07:16.262Z,8.27
2023-03-04T01:09:17.903Z,7.82
2023-03-04T01:11:19.568Z,7.57
2023-03-04T01:13:21.251Z,9.30
2023-03-04T01:15:23.208Z,7.45
2023-03-04T01:17:24.992Z,6.45
2023-03-04T01:19:26.788Z,9.98
2023-03-04T01:21:28.418Z,7.43
2023-03-04T01:23:30.135Z,8.43
2023-03-04T01:25:31.939Z,7.82
2023-03-04T01:27:33.621Z,10.43
2023-03-04T01:29:35.340Z,11.02
2023-03-04T01:31:37.095Z,7.40
2023-03-04T01:33:38.783Z,7.25
2023-03-04T01:35:40.453Z,9.02
2023-03-04T01:37:42.143Z,6.47
2023-03-04T01:39:43.758Z,6.25
2023-03-04T01:41:45.615Z,7.32
2023-03-04T01:43:47.404Z,6.53
2023-03-04T01:45:50.658Z,8.77
2023-03-04T01:47:52.646Z,7.22
2023-03-04T01:49:57.008Z,6.68
2023-03-04T01:51:58.629Z,6.72
2023-03-04T01:54:00.323Z,6.88
2023-03-04T01:56:11.818Z,11.60
2023-03-04T01:58:13.572Z,7.05
2023-03-04T02:00:44.588Z,7.53
2023-03-04T02:02:48.177Z,7.25
2023-03-04T02:04:49.833Z,6.97
2023-03-04T02:06:52.388Z,8.18
2023-03-04T02:08:54.138Z,6.05
2023-03-04T02:10:56.128Z,7.18
2023-03-04T02:12:59.553Z,7.13
2023-03-04T02:15:01.447Z,6.57
2023-03-04T02:17:03.159Z,6.78
2023-03-04T02:19:19.095Z,6.88
2023-03-04T02:21:29.379Z,7.05
2023-03-04T02:23:40.812Z,7.55
2023-03-04T02:26:04.248Z,7.40
2023-03-04T02:28:05.941Z,6.85
2023-03-04T02:30:08.312Z,6.53
2023-03-04T02:32:12.982Z,7.03
2023-03-04T02:34:24.113Z,6.93
2023-03-04T02:38:27.602Z,9.38
2023-03-04T02:40:33.289Z,6.70
2023-03-04T02:42:34.968Z,6.88
2023-03-04T02:44:39.541Z,6.82
2023-03-04T02:46:41.218Z,6.25
2023-03-04T02:48:42.893Z,8.32
2023-03-04T02:50:55.598Z,6.28
2023-03-04T02:52:57.286Z,8.23
2023-03-04T02:54:58.968Z,7.78
2023-03-04T02:57:03.964Z,6.70
2023-03-04T02:59:05.613Z,7.68
2023-03-04T03:01:07.278Z,6.90
2023-03-04T03:03:09.328Z,6.28
2023-03-04T03:05:12.750Z,6.00
2023-03-04T03:07:14.343Z,6.40
2023-03-04T03:09:16.332Z,6.20
2023-03-04T03:11:17.950Z,6.25
2023-03-04T03:13:19.620Z,8.18
2023-03-04T03:15:21.329Z,6.35
2023-03-04T03:17:22.990Z,5.88
2023-03-04T03:19:24.637Z,6.35
2023-03-04T03:21:26.531Z,6.63
2023-03-04T03:23:28.113Z,6.22
2023-03-04T03:25:29.732Z,6.78
2023-03-04T03:27:31.355Z,7.05
2023-03-04T03:29:33.002Z,7.05
2023-03-04T03:31:34.691Z,6.80
2023-03-04T03:33:36.493Z,6.32
2023-03-04T03:35:38.197Z,6.25
2023-03-04T03:37:39.922Z,5.85
2023-03-04T03:39:41.786Z,6.03
2023-03-04T03:41:43.591Z,6.57
2023-03-04T03:43:45.258Z,6.57
2023-03-04T03:45:47.014Z,6.38
2023-03-04T03:47:48.669Z,7.85
2023-03-04T03:49:50.279Z,6.05
2023-03-04T03:51:52.096Z,6.25
2023-03-04T03:53:53.781Z,5.90
2023-03-04T03:55:55.406Z,6.45
2023-03-04T03:57:57.093Z,5.75
2023-03-04T03:59:58.742Z,6.25
2023-03-04T04:02:00.569Z,6.10
2023-03-04T04:04:02.294Z,5.97
2023-03-04T04:06:04.134Z,5.68
2023-03-04T04:08:05.844Z,5.78
2023-03-04T04:10:08.451Z,5.72
2023-03-04T04:12:13.465Z,6.07
2023-03-04T04:14:15.330Z,6.47
2023-03-04T04:16:17.139Z,6.55
2023-03-04T04:18:19.213Z,5.75
2023-03-04T04:20:20.947Z,5.90
2023-03-04T04:22:22.556Z,6.50
2023-03-04T04:24:24.286Z,5.85
2023-03-04T04:26:25.935Z,6.65
2023-03-04T04:28:27.610Z,5.80
2023-03-04T04:30:29.412Z,5.63
2023-03-04T04:32:31.086Z,6.28
2023-03-04T04:34:33.069Z,6.35
2023-03-04T04:36:34.767Z,5.93
2023-03-04T04:38:37.666Z,4.88
2023-03-04T04:40:39.330Z,7.28
2023-03-04T04:42:40.985Z,5.13
2023-03-04T04:44:42.606Z,5.88
2023-03-04T04:46:44.339Z,5.63
2023-03-04T04:48:46.169Z,6.32
2023-03-04T04:50:53.304Z,6.68
2023-03-04T04:52:54.974Z,5.63
2023-03-04T04:54:57.032Z,5.88
2023-03-04T04:56:58.683Z,5.90
2023-03-04T04:59:04.310Z,6.68
2023-03-04T05:01:06.357Z,5.70
2023-03-04T05:03:08.124Z,5.28
2023-03-04T05:05:10.261Z,5.75
2023-03-04T05:07:11.908Z,5.63
2023-03-04T05:09:13.800Z,5.53
2023-03-04T05:11:16.012Z,8.65
2023-03-04T05:13:19.384Z,5.82
2023-03-04T05:15:20.995Z,5.57
2023-03-04T05:17:22.743Z,5.35
2023-03-04T05:19:24.358Z,5.65
2023-03-04T05:21:26.083Z,5.70
2023-03-04T05:23:30.289Z,5.57
2023-03-04T05:25:31.927Z,5.47
2023-03-04T05:27:33.936Z,7.68
2023-03-04T05:29:35.597Z,5.40
2023-03-04T05:31:37.261Z,5.38
2023-03-04T05:33:39.632Z,5.38
2023-03-04T05:35:43.019Z,5.65
2023-03-04T05:37:45.043Z,5.32
2023-03-04T05:39:46.683Z,8.70
2023-03-04T05:41:48.344Z,5.45
2023-03-04T05:43:50.544Z,4.80
2023-03-04T05:45:52.272Z,5.50
2023-03-04T05:47:54.212Z,8.40
2023-03-04T05:49:57.932Z,7.95
2023-03-04T05:51:59.581Z,17.08
2023-03-04T05:54:01.210Z,6.47
2023-03-04T05:56:15.437Z,7.32
2023-03-04T05:58:17.624Z,5.22
2023-03-04T06:00:19.425Z,10.50
2023-03-04T06:02:21.095Z,10.07
2023-03-04T06:04:22.741Z,4.80
2023-03-04T06:06:24.397Z,8.32
2023-03-04T06:08:27.154Z,7.70
2023-03-04T06:10:28.886Z,12.85
2023-03-04T06:12:30.530Z,8.57
2023-03-04T06:14:32.309Z,10.88
2023-03-04T06:16:33.901Z,8.27
2023-03-04T06:18:35.642Z,6.93
2023-03-04T06:20:37.687Z,5.72
2023-03-04T06:22:39.567Z,5.80
2023-03-04T06:24:41.174Z,16.77
2023-03-04T06:26:42.824Z,6.20
2023-03-04T06:28:44.982Z,12.68
2023-03-04T06:30:46.602Z,8.88
2023-03-04T06:32:48.566Z,14.27
2023-03-04T06:34:50.169Z,8.48
2023-03-04T06:36:51.961Z,14.95
2023-03-04T06:38:53.618Z,15.90
2023-03-04T06:40:57.315Z,11.85
2023-03-04T06:42:59.267Z,15.63
2023-03-04T06:45:01.434Z,14.07
2023-03-04T06:47:03.148Z,15.25
2023-03-04T06:49:04.901Z,10.75
2023-03-04T06:51:11.235Z,17.13
2023-03-04T06:53:12.912Z,47.65
2023-03-04T06:55:14.735Z,62.65
2023-03-04T06:57:16.642Z,73.55
2023-03-04T06:59:18.311Z,46.47
2023-03-04T07:01:22.453Z,20.75
2023-03-04T07:03:24.062Z,22.98
2023-03-04T07:05:25.884Z,17.05
2023-03-04T07:07:27.604Z,25.23
2023-03-04T07:09:29.412Z,23.45
2023-03-04T07:11:31.067Z,22.05
2023-03-04T07:13:34.357Z,16.70
2023-03-04T07:15:37.113Z,19.00
2023-03-04T07:17:38.802Z,19.95
2023-03-04T07:19:41.817Z,15.43
2023-03-04T07:21:43.470Z,15.38
2023-03-04T07:23:45.789Z,35.70
2023-03-04T07:25:49.746Z,24.85
2023-03-04T07:27:51.410Z,39.80
2023-03-04T07:29:53.056Z,39.45
2023-03-04T07:31:55.567Z,32.40
2023-03-04T07:34:06.006Z,45.08
2023-03-04T07:36:07.821Z,32.80
2023-03-04T07:38:09.850Z,31.75
2023-03-04T07:40:12.029Z,15.82
2023-03-04T07:42:13.682Z,23.35
2023-03-04T07:44:15.317Z,36.58
2023-03-04T07:46:18.186Z,21.20
2023-03-04T07:48:19.938Z,25.17
2023-03-04T07:50:22.439Z,50.38
2023-03-04T07:52:24.101Z,39.95
2023-03-04T07:54:25.769Z,32.22
2023-03-04T07:56:33.340Z,15.88
2023-03-04T07:58:35.113Z,20.58
2023-03-04T08:00:36.754Z,27.90
2023-03-04T08:02:38.593Z,33.30
2023-03-04T08:04:40.236Z,16.27
2023-03-04T08:06:42.264Z,20.77
2023-03-04T08:08:44.054Z,15.88
2023-03-04T08:10:45.812Z,19.63
2023-03-04T08:12:47.405Z,16.95
2023-03-04T08:14:49.048Z,13.32
2023-03-04T08:16:50.773Z,18.33
2023-03-04T08:18:55.678Z,23.65
2023-03-04T08:20:57.415Z,12.65
2023-03-04T08:22:59.006Z,10.30
2023-03-04T08:25:00.661Z,16.15
2023-03-04T08:27:02.510Z,16.17
2023-03-04T08:29:05.691Z,8.30
2023-03-04T08:31:07.670Z,12.82
2023-03-04T08:33:10.476Z,14.20
2023-03-04T08:35:12.180Z,8.57
2023-03-04T08:37:13.830Z,16.77
2023-03-04T08:39:17.871Z,11.98
2023-03-04T08:41:20.325Z,10.55
2023-03-04T08:43:22.729Z,18.52
2023-03-04T08:45:24.477Z,14.32
2023-03-04T08:47:26.097Z,11.90
2023-03-04T08:49:27.761Z,10.10
2023-03-04T08:51:29.396Z,8.68
2023-03-04T08:53:31.040Z,13.73
2023-03-04T08:55:32.710Z,8.82
2023-03-04T08:57:34.380Z,12.30
2023-03-04T08:59:38.167Z,8.18
2023-03-04T09:01:40.173Z,10.15
2023-03-04T09:03:42.604Z,6.22
2023-03-04T09:05:45.527Z,11.25
2023-03-04T09:07:47.242Z,7.40
2023-03-04T09:09:48.829Z,7.70
2023-03-04T09:11:50.453Z,7.28
2023-03-04T09:13:52.201Z,5.10
2023-03-04T09:15:54.276Z,7.63
2023-03-04T09:17:56.016Z,7.60
2023-03-04T09:19:57.680Z,7.03
2023-03-04T09:21:59.474Z,6.43
2023-03-04T09:24:01.079Z,6.75
2023-03-04T09:26:12.884Z,5.43
2023-03-04T09:28:15.608Z,33.53
2023-03-04T09:30:17.506Z,24.65
2023-03-04T09:32:19.421Z,17.92
2023-03-04T09:34:21.156Z,10.57
2023-03-04T09:36:23.374Z,17.58
2023-03-04T09:38:25.158Z,8.50
2023-03-04T09:40:32.267Z,19.58
2023-03-04T09:42:42.809Z,42.40
2023-03-04T09:44:46.775Z,27.77
2023-03-04T09:46:49.725Z,30.73
2023-03-04T09:48:54.657Z,16.45
2023-03-04T09:51:31.703Z,19.85
2023-03-04T09:54:03.714Z,17.48
2023-03-04T09:56:06.434Z,24.17
2023-03-04T09:58:26.838Z,32.30
2023-03-04T10:00:54.718Z,21.10
2023-03-04T10:03:16.485Z,22.42
2023-03-04T10:05:21.576Z,23.10
2023-03-04T10:07:29.598Z,24.13
2023-03-04T10:10:05.136Z,27.23
2023-03-04T10:12:15.665Z,30.38
2023-03-04T10:14:23.239Z,31.40
2023-03-04T10:16:31.399Z,24.52
2023-03-04T10:18:41.196Z,21.42
2023-03-04T10:20:58.178Z,18.52
2023-03-04T10:23:18.378Z,17.73
2023-03-04T10:25:29.282Z,14.73
2023-03-04T10:27:31.570Z,28.40
2023-03-04T10:29:33.907Z,29.48
2023-03-04T10:31:37.396Z,15.98
2023-03-04T10:33:40.323Z,23.13
2023-03-04T10:35:46.392Z,23.02
2023-03-04T10:37:51.058Z,16.70
2023-03-04T10:39:52.838Z,15.38
2023-03-04T10:42:00.973Z,26.88
2023-03-04T10:44:08.856Z,19.83
2023-03-04T10:46:12.368Z,16.30
2023-03-04T10:48:23.054Z,30.55
2023-03-04T10:50:27.855Z,20.25
2023-03-04T10:52:38.391Z,24.50
2023-03-04T10:55:02.467Z,27.17
2023-03-04T10:57:33.314Z,20.92
2023-03-04T10:59:41.206Z,24.05
2023-03-04T11:01:42.870Z,16.95
2023-03-04T11:03:49.669Z,19.05
2023-03-04T11:05:53.609Z,22.05
2023-03-04T11:07:58.879Z,23.98
2023-03-04T11:10:30.007Z,17.80
2023-03-04T11:12:35.694Z,17.45
2023-03-04T11:14:43.221Z,22.42
2023-03-04T11:16:53.739Z,19.63
2023-03-04T11:19:05.389Z,21.40
2023-03-04T11:21:13.654Z,20.30
2023-03-04T11:23:20.289Z,20.77
2023-03-04T11:25:30.875Z,29.02
2023-03-04T11:27:42.874Z,22.77
2023-03-04T11:29:57.664Z,22.15
2023-03-04T11:32:27.582Z,32.58
2023-03-04T11:34:41.047Z,25.98
2023-03-04T11:36:59.547Z,30.73
2023-03-04T11:39:04.813Z,25.25
2023-03-04T11:41:14.164Z,28.48
2023-03-04T11:43:22.288Z,33.35
2023-03-04T11:45:52.227Z,33.80
2023-03-04T11:47:56.918Z,28.80
2023-03-04T11:50:10.229Z,34.42
2023-03-04T11:52:27.090Z,30.52
2023-03-04T11:54:54.909Z,29.20
2023-03-04T11:57:02.854Z,32.35
2023-03-04T11:59:53.948Z,24.02
2023-03-04T12:02:10.710Z,25.98
2023-03-04T12:04:23.583Z,27.63
2023-03-04T12:06:43.235Z,26.75
2023-03-04T12:09:02.799Z,29.48
2023-03-04T12:11:10.646Z,27.88
2023-03-04T12:13:36.259Z,21.13
2023-03-04T12:16:03.514Z,22.52
2023-03-04T12:18:21.673Z,23.35
2023-03-04T12:20:44.363Z,23.00
2023-03-04T12:23:13.176Z,20.20
2023-03-04T12:25:54.574Z,25.77
2023-03-04T12:30:51.328Z,25.63
2023-03-04T12:33:46.943Z,27.60
2023-03-04T12:36:00.839Z,25.58
2023-03-04T12:38:17.184Z,19.17
2023-03-04T12:40:41.578Z,21.65
2023-03-04T12:43:13.817Z,21.60
2023-03-04T12:45:18.390Z,21.00
2023-03-04T12:47:23.093Z,16.73
2023-03-04T12:50:03.957Z,28.98
2023-03-04T12:52:30.917Z,38.78
2023-03-04T12:54:34.632Z,25.90
2023-03-04T12:56:44.578Z,22.88
2023-03-04T12:58:46.356Z,18.42
2023-03-04T13:01:00.141Z,17.40
2023-03-04T13:03:17.627Z,16.65
2023-03-04T13:05:37.207Z,20.55
2023-03-04T13:07:41.714Z,24.60
2023-03-04T13:09:57.332Z,18.20
2023-03-04T13:12:16.894Z,26.98
2023-03-04T13:14:21.305Z,26.48
2023-03-04T13:16:38.990Z,26.95
2023-03-04T13:18:40.664Z,24.55
2023-03-04T13:20:43.050Z,17.08
2023-03-04T13:23:15.336Z,20.70
2023-03-04T13:25:35.569Z,20.88
2023-03-04T13:28:05.605Z,19.03
2023-03-04T13:30:33.384Z,16.00
2023-03-04T13:32:38.398Z,26.73
2023-03-04T13:34:47.220Z,19.83
2023-03-04T13:36:54.914Z,21.50
2023-03-04T13:39:14.978Z,24.83
2023-03-04T13:41:28.212Z,17.65
2023-03-04T13:43:40.483Z,14.75
2023-03-04T13:45:42.110Z,20.70
2023-03-04T13:47:46.576Z,18.67
2023-03-04T13:49:48.438Z,30.17
2023-03-04T13:51:50.875Z,16.80
2023-03-04T13:53:55.545Z,20.38
2023-03-04T13:56:12.018Z,18.63
2023-03-04T13:58:20.311Z,15.38
2023-03-04T14:00:22.114Z,32.45
2023-03-04T14:02:26.094Z,31.50
2023-03-04T14:04:37.163Z,18.13
2023-03-04T14:08:45.337Z,19.88
2023-03-04T14:10:55.382Z,27.05
2023-03-04T14:12:59.316Z,28.08
2023-03-04T14:15:25.052Z,41.00
2023-03-04T14:17:33.292Z,14.52
2023-03-04T14:19:46.010Z,14.93
2023-03-04T14:21:48.099Z,20.73
2023-03-04T14:24:05.652Z,19.75
2023-03-04T14:26:13.035Z,21.83
2023-03-04T14:28:17.540Z,13.40
2023-03-04T14:30:31.821Z,17.17
2023-03-04T14:32:43.020Z,14.63
2023-03-04T14:34:50.591Z,25.10
2023-03-04T14:36:53.080Z,18.02
2023-03-04T14:38:58.885Z,17.10
2023-03-04T14:41:20.828Z,28.35
2023-03-04T14:43:23.778Z,16.48
2023-03-04T14:45:26.313Z,13.95
2023-03-04T14:47:38.010Z,12.88
2023-03-04T14:49:40.291Z,15.55
2023-03-04T14:51:54.047Z,14.88
2023-03-04T14:53:56.921Z,15.13
2023-03-04T14:55:58.571Z,11.23
2023-03-04T14:58:21.471Z,10.65
2023-03-04T15:00:28.093Z,10.68
2023-03-04T15:02:38.325Z,12.07
2023-03-04T15:04:40.923Z,13.43
2023-03-04T15:06:53.464Z,19.52
2023-03-04T15:09:05.240Z,13.23
2023-03-04T15:11:13.789Z,11.23
2023-03-04T15:13:15.438Z,9.68
2023-03-04T15:15:43.218Z,30.00
2023-03-04T15:17:45.228Z,16.63
2023-03-04T15:19:58.464Z,13.10
2023-03-04T15:22:05.413Z,13.23
2023-03-04T15:24:09.197Z,11.10
2023-03-04T15:26:11.881Z,13.63
2023-03-04T15:28:18.979Z,9.82
2023-03-04T15:30:21.430Z,9.38
2023-03-04T15:32:23.938Z,8.93
2023-03-04T15:34:25.662Z,15.50
2023-03-04T15:36:27.330Z,12.43
2023-03-04T15:38:29.754Z,24.60
2023-03-04T15:40:39.550Z,20.25
2023-03-04T15:42:41.229Z,11.75
2023-03-04T15:44:43.026Z,18.40
2023-03-04T15:46:44.711Z,18.17
2023-03-04T15:48:46.934Z,16.27
2023-03-04T15:50:50.597Z,22.05
2023-03-04T15:52:53.767Z,20.27
2023-03-04T15:54:55.398Z,13.35
2023-03-04T15:56:58.307Z,14.23
2023-03-04T15:59:17.003Z,19.90
2023-03-04T16:01:18.715Z,32.33
2023-03-04T16:03:22.069Z,24.27
2023-03-04T16:05:24.000Z,15.13
2023-03-04T16:07:29.647Z,12.52
2023-03-04T16:09:31.427Z,20.70
2023-03-04T16:11:39.081Z,19.95
2023-03-04T16:13:40.753Z,15.55
2023-03-04T16:15:43.212Z,21.58
2023-03-04T16:17:46.129Z,15.18
2023-03-04T16:19:47.874Z,18.45
2023-03-04T16:21:49.494Z,17.25
2023-03-04T16:23:52.365Z,15.38
2023-03-04T16:25:56.316Z,29.77
2023-03-04T16:28:02.901Z,15.05
2023-03-04T16:30:05.852Z,17.77
2023-03-04T16:32:08.281Z,17.70
2023-03-04T16:34:09.925Z,18.55
2023-03-04T16:36:23.490Z,19.65
2023-03-04T16:38:28.493Z,30.20
2023-03-04T16:40:31.265Z,22.15
2023-03-04T16:42:32.961Z,25.30
2023-03-04T16:44:34.573Z,25.88
2023-03-04T16:46:36.301Z,19.92
2023-03-04T16:48:38.272Z,20.75
2023-03-04T16:50:40.915Z,17.58
2023-03-04T16:52:45.642Z,18.20
2023-03-04T16:54:47.363Z,21.95
2023-03-04T16:56:49.009Z,17.50
2023-03-04T16:58:51.493Z,22.98
2023-03-04T17:00:53.181Z,13.65
2023-03-04T17:02:59.643Z,18.40
2023-03-04T17:05:01.385Z,14.20
2023-03-04T17:07:02.994Z,13.63
2023-03-04T17:09:06.369Z,14.25
2023-03-04T17:11:10.822Z,14.45
2023-03-04T17:13:12.532Z,11.20
2023-03-04T17:15:14.791Z,17.83
2023-03-04T17:17:18.474Z,14.70
2023-03-04T17:19:20.217Z,12.02
2023-03-04T17:21:25.111Z,16.85
2023-03-04T17:23:26.721Z,13.45
2023-03-04T17:25:28.384Z,16.40
2023-03-04T17:27:30.634Z,16.40
2023-03-04T17:29:32.287Z,11.95
2023-03-04T17:31:35.328Z,10.88
2023-03-04T17:33:37.001Z,9.15
2023-03-04T17:35:39.780Z,9.77
2023-03-04T17:37:41.590Z,12.88
2023-03-04T17:39:43.500Z,12.60
2023-03-04T17:41:45.243Z,11.10
2023-03-04T17:43:49.648Z,9.13
2023-03-04T17:45:51.279Z,10.82
2023-03-04T17:47:52.936Z,11.60
2023-03-04T17:49:54.774Z,13.32
2023-03-04T17:51:56.386Z,10.20
2023-03-04T17:53:58.192Z,10.70
2023-03-04T17:56:01.995Z,13.90
2023-03-04T17:58:03.625Z,10.77
2023-03-04T18:00:06.444Z,9.95
2023-03-04T18:02:11.277Z,9.68
2023-03-04T18:04:14.090Z,10.27
2023-03-04T18:06:16.992Z,9.63
2023-03-04T18:08:18.687Z,11.48
2023-03-04T18:10:20.323Z,12.65
2023-03-04T18:12:21.936Z,9.10
2023-03-04T18:14:23.580Z,8.00
2023-03-04T18:16:27.047Z,8.35
2023-03-04T18:18:28.728Z,9.30
2023-03-04T18:20:30.567Z,9.35
2023-03-04T18:22:32.271Z,7.55
2023-03-04T18:24:33.962Z,7.38
2023-03-04T18:26:35.872Z,9.68
2023-03-04T18:28:37.670Z,11.98
2023-03-04T18:30:39.359Z,8.90
2023-03-04T18:32:51.403Z,8.45
2023-03-04T18:34:53.675Z,7.10
2023-03-04T18:36:55.258Z,8.38
2023-03-04T18:38:59.280Z,7.82
2023-03-04T18:41:05.941Z,9.82
2023-03-04T18:43:07.623Z,9.32
2023-03-04T18:45:10.742Z,7.70
2023-03-04T18:47:13.545Z,9.77
2023-03-04T18:49:15.440Z,7.88
2023-03-04T18:51:17.163Z,8.40
2023-03-04T18:53:18.836Z,8.90
2023-03-04T18:55:21.526Z,7.72
2023-03-04T18:57:23.217Z,6.80
2023-03-04T18:59:31.439Z,10.95
2023-03-04T19:01:33.364Z,8.02
2023-03-04T19:03:37.590Z,10.27
2023-03-04T19:05:40.437Z,8.23
2023-03-04T19:07:42.069Z,7.85
2023-03-04T19:09:43.843Z,8.63
2023-03-04T19:11:45.491Z,13.18
2023-03-04T19:13:47.522Z,7.82
2023-03-04T19:15:53.745Z,6.55
2023-03-04T19:17:55.456Z,8.50
2023-03-04T19:19:57.052Z,6.72
2023-03-04T19:21:59.122Z,9.80
2023-03-04T19:24:00.754Z,8.35
2023-03-04T19:26:02.881Z,8.00
2023-03-04T19:28:04.808Z,7.32
2023-03-04T19:30:07.303Z,7.38
2023-03-04T19:32:08.940Z,7.32
2023-03-04T19:34:10.704Z,8.48
2023-03-04T19:36:12.426Z,6.63
2023-03-04T19:38:14.182Z,8.77
2023-03-04T19:40:16.101Z,7.30
2023-03-04T19:42:18.096Z,7.35
2023-03-04T19:44:19.861Z,6.90
2023-03-04T19:46:21.601Z,7.50
2023-03-04T19:48:24.142Z,6.43
2023-03-04T19:50:26.766Z,7.32
2023-03-04T19:52:28.392Z,7.85
2023-03-04T19:54:30.351Z,7.22
2023-03-04T19:56:32.003Z,6.53
2023-03-04T19:58:33.705Z,9.13
2023-03-04T20:00:36.032Z,7.25
2023-03-04T20:02:38.028Z,7.55
2023-03-04T20:04:39.767Z,6.65
2023-03-04T20:06:44.320Z,7.63
2023-03-04T20:08:45.955Z,8.43
2023-03-04T20:10:47.613Z,7.00
2023-03-04T20:12:49.292Z,9.60
2023-03-04T20:14:53.898Z,7.45
2023-03-04T20:17:00.530Z,7.07
2023-03-04T20:19:02.345Z,6.97
2023-03-04T20:21:04.391Z,6.22
2023-03-04T20:23:06.334Z,7.40
2023-03-04T20:25:08.378Z,6.53
2023-03-04T20:27:14.582Z,8.63
2023-03-04T20:29:16.333Z,6.70
2023-03-04T20:31:25.571Z,8.80
2023-03-04T20:33:27.397Z,6.93
2023-03-04T20:35:29.007Z,7.90
2023-03-04T20:37:30.641Z,6.05
2023-03-04T20:39:32.305Z,7.22
2023-03-04T20:41:34.720Z,7.28
2023-03-04T20:43:36.844Z,7.07
2023-03-04T20:45:38.461Z,6.32
2023-03-04T20:47:41.261Z,7.13
2023-03-04T20:49:43.046Z,6.88
2023-03-04T20:51:44.682Z,6.53
2023-03-04T20:53:46.452Z,7.10
2023-03-04T20:55:48.119Z,7.47
2023-03-04T20:57:49.798Z,6.45
2023-03-04T20:59:51.540Z,6.32
2023-03-04T21:01:54.072Z,6.25
2023-03-04T21:03:55.885Z,6.95
2023-03-04T21:06:09.721Z,6.30
2023-03-04T21:08:11.386Z,6.93
2023-03-04T21:10:13.076Z,7.05
2023-03-04T21:12:14.767Z,6.68
2023-03-04T21:14:22.050Z,6.97
2023-03-04T21:16:30.017Z,5.75
2023-03-04T21:18:31.716Z,7.00
2023-03-04T21:20:33.382Z,7.68
2023-03-04T21:22:35.007Z,6.18
2023-03-04T21:24:39.157Z,6.38
2023-03-04T21:26:43.082Z,6.30
2023-03-04T21:28:45.826Z,7.30
2023-03-04T21:30:47.535Z,8.15
2023-03-04T21:32:49.209Z,6.68
2023-03-04T21:34:52.167Z,6.68
2023-03-04T21:36:54.071Z,6.18
2023-03-04T21:38:55.792Z,6.90
2023-03-04T21:40:57.462Z,8.25
2023-03-04T21:42:59.073Z,7.85
2023-03-04T21:45:00.749Z,7.80
2023-03-04T21:47:02.731Z,6.97
2023-03-04T21:49:05.582Z,8.98
2023-03-04T21:51:08.881Z,7.55
2023-03-04T21:53:10.481Z,7.63
2023-03-04T21:55:12.662Z,6.28
2023-03-04T21:57:14.478Z,7.05
2023-03-04T21:59:17.436Z,7.45
2023-03-04T22:01:21.358Z,6.82
2023-03-04T22:03:23.742Z,8.48
2023-03-04T22:05:25.420Z,6.15
2023-03-04T22:07:27.258Z,7.40
2023-03-04T22:09:28.989Z,7.32
2023-03-04T22:11:30.949Z,6.53
2023-03-04T22:13:33.424Z,6.43
2023-03-04T22:15:40.322Z,6.63
2023-03-04T22:17:45.428Z,5.55
2023-03-04T22:19:47.134Z,6.85
2023-03-04T22:21:48.740Z,5.88
2023-03-04T22:23:50.378Z,6.68
2023-03-04T22:25:52.015Z,6.18
2023-03-04T22:27:53.792Z,7.38
2023-03-04T22:29:56.307Z,5.82
2023-03-04T22:31:58.002Z,7.40
2023-03-04T22:34:01.950Z,6.45
2023-03-04T22:36:05.689Z,5.75
2023-03-04T22:38:07.479Z,5.63
2023-03-04T22:40:11.511Z,6.50
2023-03-04T22:42:13.141Z,6.80
2023-03-04T22:44:15.044Z,6.13
2023-03-04T22:46:26.525Z,5.70
2023-03-04T22:48:28.154Z,6.07
2023-03-04T22:50:29.805Z,6.25
2023-03-04T22:52:31.874Z,6.05
2023-03-04T22:54:33.558Z,6.43
2023-03-04T22:56:36.482Z,6.20
2023-03-04T22:58:38.603Z,7.60
2023-03-04T23:00:40.270Z,7.20
2023-03-04T23:02:42.416Z,6.03
2023-03-04T23:04:44.032Z,6.05
2023-03-04T23:06:45.674Z,6.55
2023-03-04T23:08:49.524Z,5.90
2023-03-04T23:10:51.140Z,6.15
2023-03-04T23:12:52.854Z,7.20
2023-03-04T23:14:54.621Z,6.10
2023-03-04T23:16:56.356Z,6.03
2023-03-04T23:18:59.577Z,6.13
2023-03-04T23:21:08.896Z,6.97
2023-03-04T23:23:11.709Z,5.78
2023-03-04T23:25:14.656Z,6.18
2023-03-04T23:27:16.429Z,5.93
2023-03-04T23:29:18.206Z,6.45
2023-03-04T23:31:20.046Z,6.07
2023-03-04T23:33:21.955Z,6.55
2023-03-04T23:35:23.672Z,5.95
2023-03-04T23:37:25.615Z,5.78
2023-03-04T23:39:27.267Z,8.65
2023-03-04T23:41:30.724Z,6.93
2023-03-04T23:43:32.960Z,6.70
2023-03-04T23:45:34.657Z,6.20
2023-03-04T23:47:36.326Z,7.25
2023-03-04T23:49:38.404Z,5.97
2023-03-04T23:51:40.924Z,5.47
2023-03-04T23:53:43.063Z,7.47
2023-03-04T23:55:44.705Z,6.03
2023-03-04T23:57:47.149Z,6.20
2023-03-04T23:59:48.754Z,5.97
